Time;durP1;ratioP1;P1;durP2;ratioP2;P2;SDS_P1;SDS_P2;PMS_P1;PMS_P2;Temp;Humidity;BMP_temperature;BMP_pressure;BME280_temperature;BME280_humidity;BME280_pressure;Samples;Min_cycle;Max_cycle;Signal;HPM_P1;HPM_P2
2021/12/17 00:00:01;;;;;;;22.10;9.32;;;8.40;99.90;;;;;;4959410;28;20046;-84
2021/12/17 00:07:23;;;;;;;18.13;8.57;;;8.50;99.90;;;;;;4975328;28;20018;-83
2021/12/17 00:09:53;;;;;;;16.80;9.07;;;8.50;99.90;;;;;;4961186;28;20043;-83
2021/12/17 00:12:22;;;;;;;18.48;8.90;;;8.50;99.90;;;;;;4975899;28;20086;-84
2021/12/17 00:14:49;;;;;;;14.48;7.80;;;8.50;99.90;;;;;;4975853;28;20047;-85
2021/12/17 00:17:21;;;;;;;17.85;9.25;;;8.50;99.90;;;;;;4971162;28;20042;-83
2021/12/17 00:51:22;;;;;;;19.30;8.98;;;8.50;99.90;;;;;;4981711;28;20403;-84
2021/12/17 00:53:39;;;;;;;21.85;10.02;;;8.40;99.90;;;;;;4968487;28;20063;-83
2021/12/17 00:56:05;;;;;;;16.33;9.33;;;8.50;99.90;;;;;;4965107;28;20034;-84
2021/12/17 00:58:31;;;;;;;17.38;9.52;;;8.40;99.90;;;;;;4972460;28;20553;-84
2021/12/17 01:00:57;;;;;;;18.08;9.38;;;8.50;99.90;;;;;;4974313;28;20086;-84
2021/12/17 01:03:41;;;;;;;15.60;8.60;;;8.50;99.90;;;;;;4951965;28;20499;-84
2021/12/17 01:06:08;;;;;;;15.95;9.35;;;8.50;99.90;;;;;;4974936;28;20082;-83
2021/12/17 01:08:34;;;;;;;19.25;9.57;;;8.50;99.90;;;;;;4972700;28;20065;-83
2021/12/17 01:11:00;;;;;;;16.90;9.35;;;8.50;99.90;;;;;;4957655;28;20023;-84
2021/12/17 01:13:29;;;;;;;17.60;9.35;;;8.50;99.90;;;;;;4974442;28;20030;-83
2021/12/17 01:15:56;;;;;;;13.23;7.60;;;8.50;99.90;;;;;;4957646;28;20026;-84
2021/12/17 01:18:33;;;;;;;16.20;8.25;;;8.50;99.90;;;;;;4957412;28;20039;-85
2021/12/17 01:36:50;;;;;;;16.77;7.82;;;8.60;99.90;;;;;;4974275;28;20403;-84
2021/12/17 01:42:17;;;;;;;13.63;6.90;;;8.60;99.90;;;;;;4924579;29;20544;-83
2021/12/17 01:44:43;;;;;;;15.55;7.50;;;8.70;99.90;;;;;;4946526;29;20062;-84
2021/12/17 01:47:11;;;;;;;13.23;7.78;;;8.70;99.90;;;;;;4949746;28;20031;-82
2021/12/17 02:00:26;;;;;;;12.63;6.97;;;8.80;99.90;;;;;;4964213;28;20026;-83
2021/12/17 02:02:59;;;;;;;13.40;7.50;;;8.70;99.90;;;;;;4906414;29;20094;-84
2021/12/17 02:05:24;;;;;;;15.10;7.97;;;8.70;99.90;;;;;;4916553;29;20044;-86
2021/12/17 02:07:53;;;;;;;16.73;7.75;;;8.70;99.90;;;;;;4903345;29;20039;-84
2021/12/17 02:32:38;;;;;;;13.73;5.97;;;8.80;99.90;;;;;;4885211;29;20038;-85
2021/12/17 02:37:41;;;;;;;15.70;6.63;;;8.90;99.90;;;;;;4942151;29;20044;-82
2021/12/17 02:45:32;;;;;;;12.95;5.75;;;8.80;99.90;;;;;;4943947;29;20060;-83
2021/12/17 02:48:04;;;;;;;12.25;6.25;;;8.80;99.90;;;;;;4928434;29;20031;-81
2021/12/17 02:50:31;;;;;;;12.73;5.88;;;8.80;99.90;;;;;;4971130;29;20043;-81
2021/12/17 02:52:58;;;;;;;12.80;6.55;;;8.80;99.90;;;;;;4963285;29;20012;-83
2021/12/17 02:55:24;;;;;;;14.63;6.65;;;8.80;99.90;;;;;;4963469;29;20027;-83
2021/12/17 02:57:51;;;;;;;15.20;7.00;;;8.80;99.90;;;;;;4979269;28;20055;-83
2021/12/17 03:00:18;;;;;;;17.88;7.03;;;8.80;99.90;;;;;;4963454;29;20028;-82
2021/12/17 03:02:46;;;;;;;18.75;7.75;;;8.70;99.90;;;;;;4979559;28;20035;-82
2021/12/17 03:05:12;;;;;;;12.52;6.22;;;8.80;99.90;;;;;;4964043;29;20024;-84
2021/12/17 03:07:41;;;;;;;14.85;7.25;;;8.80;99.90;;;;;;4979590;28;20039;-83
2021/12/17 03:10:10;;;;;;;11.60;6.32;;;8.80;99.90;;;;;;4963564;29;20012;-82
2021/12/17 03:15:22;;;;;;;13.68;6.90;;;8.90;99.90;;;;;;4993633;28;20034;-82
2021/12/17 03:25:52;;;;;;;16.80;8.20;;;8.90;99.90;;;;;;5000923;28;20074;-82
2021/12/17 03:28:18;;;;;;;16.73;7.93;;;8.90;99.90;;;;;;4985823;28;20038;-83
2021/12/17 03:30:45;;;;;;;16.38;8.25;;;8.90;99.90;;;;;;5002260;28;20034;-83
2021/12/17 03:33:11;;;;;;;22.90;9.10;;;8.90;99.90;;;;;;5004974;28;20039;-83
2021/12/17 03:35:37;;;;;;;17.83;9.32;;;8.80;99.90;;;;;;4985143;28;20031;-83
2021/12/17 03:38:03;;;;;;;17.58;8.73;;;8.90;99.90;;;;;;5017119;28;20022;-81
2021/12/17 03:40:31;;;;;;;18.27;10.02;;;8.90;99.90;;;;;;4985526;28;20058;-84
2021/12/17 03:43:02;;;;;;;21.25;9.43;;;8.90;99.90;;;;;;5004259;28;19999;-83
2021/12/17 03:45:29;;;;;;;21.73;10.52;;;8.90;99.90;;;;;;5000986;28;20029;-82
2021/12/17 03:47:55;;;;;;;21.40;10.68;;;8.80;99.90;;;;;;5001753;28;20042;-82
2021/12/17 03:50:21;;;;;;;24.05;10.95;;;8.80;99.90;;;;;;5001703;28;20023;-82
2021/12/17 03:52:47;;;;;;;28.17;11.23;;;8.80;99.90;;;;;;5001598;28;20027;-83
2021/12/17 03:55:13;;;;;;;25.90;10.95;;;8.80;99.90;;;;;;4985053;28;20026;-83
2021/12/17 03:57:39;;;;;;;25.17;11.60;;;8.80;99.90;;;;;;4998504;28;20037;-82
2021/12/17 04:00:07;;;;;;;30.73;12.38;;;8.80;99.90;;;;;;5005373;28;20015;-83
2021/12/17 04:02:33;;;;;;;28.60;11.88;;;8.80;99.90;;;;;;5001213;28;20019;-83
2021/12/17 04:04:58;;;;;;;35.22;12.18;;;8.80;99.90;;;;;;5001361;28;20042;-83
2021/12/17 04:07:24;;;;;;;31.60;12.52;;;8.80;99.90;;;;;;5014469;28;20018;-82
2021/12/17 04:09:50;;;;;;;39.40;13.00;;;8.90;99.90;;;;;;5020965;28;20041;-82
2021/12/17 04:12:19;;;;;;;32.97;11.75;;;8.80;99.90;;;;;;5002395;28;20038;-81
2021/12/17 04:14:45;;;;;;;35.28;13.27;;;8.80;99.90;;;;;;4984608;28;20035;-83
2021/12/17 04:17:14;;;;;;;37.45;13.02;;;8.80;99.90;;;;;;5001289;28;20022;-83
2021/12/17 04:19:40;;;;;;;38.75;11.70;;;8.80;99.90;;;;;;5001288;28;20011;-83
2021/12/17 04:22:06;;;;;;;33.03;11.98;;;8.80;99.90;;;;;;4986800;28;20027;-83
2021/12/17 04:24:32;;;;;;;35.38;12.48;;;8.90;99.90;;;;;;4991220;28;20090;-82
2021/12/17 04:26:58;;;;;;;40.58;13.00;;;8.80;99.90;;;;;;5000128;28;20042;-83
2021/12/17 04:29:25;;;;;;;36.58;12.25;;;8.80;99.90;;;;;;5000403;28;20566;-83
2021/12/17 04:31:54;;;;;;;30.05;10.95;;;8.80;99.90;;;;;;5000784;28;20079;-82
2021/12/17 04:34:20;;;;;;;26.85;10.90;;;8.80;99.90;;;;;;5008724;28;20011;-82
2021/12/17 04:36:49;;;;;;;31.13;11.43;;;8.80;99.90;;;;;;4984036;28;20015;-83
2021/12/17 04:39:17;;;;;;;31.23;11.00;;;8.90;99.90;;;;;;4983296;28;20041;-83
2021/12/17 04:44:28;;;;;;;28.77;9.52;;;8.80;99.90;;;;;;5000828;28;19945;-84
2021/12/17 04:57:36;;;;;;;17.48;7.57;;;8.80;99.90;;;;;;5000059;28;20053;-83
2021/12/17 05:00:08;;;;;;;15.52;6.93;;;8.80;99.90;;;;;;4995043;28;20026;-82
2021/12/17 05:02:40;;;;;;;26.50;7.40;;;8.80;99.90;;;;;;4984393;28;20049;-83
2021/12/17 05:05:09;;;;;;;14.52;6.18;;;8.80;99.90;;;;;;4997345;28;20018;-82
2021/12/17 05:07:44;;;;;;;15.35;5.90;;;8.80;99.90;;;;;;4999771;28;20089;-83
2021/12/17 05:20:51;;;;;;;13.50;6.20;;;8.70;99.90;;;;;;4988495;28;20031;-84
2021/12/17 05:23:22;;;;;;;17.70;5.78;;;8.70;99.90;;;;;;4984371;28;20402;-83
2021/12/17 05:25:49;;;;;;;16.85;5.88;;;8.70;99.90;;;;;;4965705;28;20110;-85
2021/12/17 05:28:15;;;;;;;14.57;5.95;;;8.70;99.90;;;;;;4964920;28;20045;-82
2021/12/17 05:30:45;;;;;;;12.10;4.88;;;8.80;99.90;;;;;;4965258;28;20503;-84
2021/12/17 05:33:13;;;;;;;11.88;4.50;;;8.80;99.90;;;;;;4987120;28;20104;-83
2021/12/17 05:35:40;;;;;;;9.63;4.82;;;8.80;99.90;;;;;;4999422;28;20026;-83
2021/12/17 05:38:06;;;;;;;9.68;4.13;;;8.80;99.90;;;;;;4981193;28;20117;-83
2021/12/17 05:40:31;;;;;;;9.40;4.35;;;8.80;99.90;;;;;;4999174;28;20054;-84
2021/12/17 05:43:00;;;;;;;8.10;3.35;;;8.80;99.90;;;;;;4980064;28;20033;-83
2021/12/17 05:45:47;;;;;;;8.15;3.83;;;8.80;99.90;;;;;;4977840;28;20034;-84
2021/12/17 05:48:16;;;;;;;8.30;3.30;;;8.90;99.90;;;;;;4960492;28;20034;-84
2021/12/17 05:50:44;;;;;;;8.63;3.88;;;8.90;99.90;;;;;;4958868;28;20023;-85
2021/12/17 05:53:10;;;;;;;8.07;3.92;;;8.90;99.90;;;;;;4973376;28;20501;-84
2021/12/17 05:55:37;;;;;;;8.63;3.65;;;8.90;99.90;;;;;;4958869;28;20045;-85
2021/12/17 05:58:04;;;;;;;6.68;3.17;;;8.90;99.90;;;;;;4957650;28;20475;-83
2021/12/17 06:00:31;;;;;;;9.32;3.90;;;8.90;99.90;;;;;;4962051;28;20530;-83
2021/12/17 06:02:59;;;;;;;9.27;4.18;;;8.90;99.90;;;;;;4985206;28;20027;-85
2021/12/17 06:05:25;;;;;;;7.47;3.17;;;8.90;99.90;;;;;;4974626;28;20031;-84
2021/12/17 06:07:52;;;;;;;9.00;3.92;;;8.90;99.90;;;;;;4974981;28;20027;-84
2021/12/17 06:10:18;;;;;;;9.20;3.58;;;8.90;99.90;;;;;;4963146;28;20034;-84
2021/12/17 06:12:44;;;;;;;7.00;3.20;;;8.90;99.90;;;;;;4975135;28;22243;-84
2021/12/17 06:15:12;;;;;;;7.30;3.45;;;8.80;99.90;;;;;;4973685;28;20043;-84
2021/12/17 06:17:39;;;;;;;16.38;4.60;;;8.80;99.90;;;;;;4958403;28;20089;-84
2021/12/17 06:20:06;;;;;;;6.40;3.90;;;8.70;99.90;;;;;;4994380;28;20057;-84
2021/12/17 06:22:32;;;;;;;8.15;3.95;;;8.80;99.90;;;;;;4959942;28;20145;-85
2021/12/17 06:24:58;;;;;;;9.15;4.63;;;8.80;99.90;;;;;;4981966;28;20526;-84
2021/12/17 06:27:25;;;;;;;14.77;4.35;;;8.70;99.90;;;;;;4976547;28;20022;-84
2021/12/17 06:29:52;;;;;;;12.15;4.38;;;8.80;99.90;;;;;;4974973;28;20029;-84
2021/12/17 06:32:20;;;;;;;9.20;3.90;;;8.70;99.90;;;;;;4971597;28;20035;-83
2021/12/17 06:34:46;;;;;;;10.02;3.75;;;8.80;99.90;;;;;;4974103;28;20023;-84
2021/12/17 06:37:12;;;;;;;6.68;4.03;;;8.70;99.90;;;;;;4965911;28;20029;-84
2021/12/17 06:39:38;;;;;;;12.20;4.10;;;8.70;99.90;;;;;;4974270;28;20078;-84
2021/12/17 06:42:04;;;;;;;10.88;3.95;;;8.70;99.90;;;;;;4974747;28;20039;-84
2021/12/17 06:44:34;;;;;;;11.65;4.13;;;8.70;99.90;;;;;;4993688;28;20409;-84
2021/12/17 06:47:12;;;;;;;12.27;4.95;;;8.70;99.90;;;;;;4973334;28;20018;-85
2021/12/17 07:00:38;;;;;;;8.85;4.07;;;8.80;99.90;;;;;;4979704;28;20041;-87
2021/12/17 07:05:59;;;;;;;9.13;4.00;;;9.00;99.90;;;;;;4987544;28;20081;-84
2021/12/17 07:11:12;;;;;;;10.43;4.35;;;8.90;99.90;;;;;;4983066;28;20027;-85
2021/12/17 07:21:34;;;;;;;9.32;4.13;;;8.80;99.90;;;;;;4978253;28;20109;-84
2021/12/17 07:34:50;;;;;;;8.60;4.03;;;8.90;99.90;;;;;;4993701;28;20492;-84
2021/12/17 07:39:42;;;;;;;8.73;5.00;;;8.90;99.90;;;;;;4977621;28;20030;-88
2021/12/17 07:42:08;;;;;;;10.70;4.00;;;8.90;99.90;;;;;;4962806;28;20030;-85
2021/12/17 07:44:33;;;;;;;10.68;4.43;;;8.80;99.90;;;;;;4986315;28;20022;-84
2021/12/17 07:46:59;;;;;;;7.22;3.85;;;8.70;99.90;;;;;;4982123;28;20033;-85
2021/12/17 07:49:25;;;;;;;9.45;4.68;;;8.60;99.90;;;;;;4993715;28;20023;-84
2021/12/17 07:51:51;;;;;;;10.57;4.68;;;8.60;99.90;;;;;;4979910;28;20030;-84
2021/12/17 07:54:16;;;;;;;13.13;4.00;;;8.70;99.90;;;;;;4993744;28;20033;-84
2021/12/17 07:56:44;;;;;;;8.07;4.43;;;8.70;99.90;;;;;;4960055;28;20033;-84
2021/12/17 07:59:11;;;;;;;10.90;4.65;;;8.70;99.90;;;;;;4945831;28;20094;-85
2021/12/17 08:01:40;;;;;;;10.15;4.65;;;8.70;99.90;;;;;;4994513;28;20506;-83
2021/12/17 08:04:06;;;;;;;12.07;4.25;;;8.70;99.90;;;;;;4979110;28;20034;-84
2021/12/17 08:06:33;;;;;;;7.38;4.05;;;8.70;99.90;;;;;;4974046;28;20061;-83
2021/12/17 08:08:59;;;;;;;8.77;4.28;;;8.70;99.90;;;;;;4978279;28;20018;-84
2021/12/17 08:11:25;;;;;;;10.63;5.15;;;8.80;99.90;;;;;;4996910;28;20026;-83
2021/12/17 08:13:54;;;;;;;12.15;5.68;;;8.80;99.90;;;;;;4974530;28;20035;-84
2021/12/17 08:29:42;;;;;;;9.82;4.88;;;8.90;99.90;;;;;;4977808;28;20505;-84
2021/12/17 08:32:08;;;;;;;9.82;4.68;;;8.90;99.90;;;;;;4993777;28;20022;-84
2021/12/17 08:34:35;;;;;;;9.20;4.43;;;9.00;99.90;;;;;;4977922;28;20038;-84
2021/12/17 08:37:01;;;;;;;11.30;4.75;;;9.00;99.90;;;;;;4977919;28;20058;-84
2021/12/17 08:39:30;;;;;;;10.90;4.85;;;9.00;99.90;;;;;;4981233;28;20037;-84
2021/12/17 08:41:55;;;;;;;11.55;4.65;;;9.00;99.90;;;;;;4995463;28;20045;-85
2021/12/17 08:44:23;;;;;;;12.48;5.93;;;9.10;99.90;;;;;;4996028;28;20030;-84
2021/12/17 08:46:50;;;;;;;15.60;5.25;;;9.10;99.90;;;;;;4962792;28;20395;-84
2021/12/17 08:49:16;;;;;;;12.88;5.00;;;9.20;99.90;;;;;;4976697;28;20506;-84
2021/12/17 08:51:43;;;;;;;11.27;4.95;;;9.20;99.90;;;;;;4996955;28;20050;-84
2021/12/17 08:54:10;;;;;;;11.45;4.65;;;9.20;99.90;;;;;;4961239;28;20031;-84
2021/12/17 08:56:42;;;;;;;9.60;4.82;;;9.20;99.90;;;;;;4975928;28;20065;-84
2021/12/17 08:59:08;;;;;;;11.02;5.43;;;9.20;99.90;;;;;;4975061;28;20062;-84
2021/12/17 09:01:34;;;;;;;9.48;4.88;;;9.20;99.90;;;;;;4995973;28;20022;-84
2021/12/17 09:04:00;;;;;;;9.60;5.22;;;9.20;99.90;;;;;;4979904;28;20038;-84
2021/12/17 09:06:26;;;;;;;10.65;4.68;;;9.20;99.90;;;;;;4958485;28;20027;-84
2021/12/17 09:08:56;;;;;;;13.30;6.00;;;9.20;99.90;;;;;;4954634;29;20031;-84
2021/12/17 09:11:23;;;;;;;11.88;5.45;;;9.20;99.90;;;;;;4965048;28;20516;-85
2021/12/17 09:13:50;;;;;;;17.83;5.82;;;9.20;99.90;;;;;;4975145;28;20558;-84
2021/12/17 09:16:20;;;;;;;15.75;5.88;;;9.20;99.90;;;;;;4975914;28;20035;-84
2021/12/17 09:18:51;;;;;;;13.50;4.93;;;9.20;99.90;;;;;;4959111;28;20073;-83
2021/12/17 09:21:18;;;;;;;10.00;5.10;;;9.30;99.90;;;;;;4958827;28;20114;-84
2021/12/17 09:23:44;;;;;;;11.27;5.35;;;9.30;99.90;;;;;;4964087;28;20038;-86
2021/12/17 09:26:16;;;;;;;11.20;5.35;;;9.30;99.90;;;;;;4996468;28;20054;-84
2021/12/17 09:28:42;;;;;;;15.40;6.10;;;9.40;99.90;;;;;;4962097;28;20395;-84
2021/12/17 09:31:12;;;;;;;13.93;4.90;;;9.40;99.90;;;;;;4975663;28;20057;-84
2021/12/17 09:33:43;;;;;;;15.85;5.88;;;9.40;99.90;;;;;;4973376;28;20478;-84
2021/12/17 09:36:09;;;;;;;10.50;5.32;;;9.40;99.90;;;;;;4976645;28;20053;-84
2021/12/17 09:38:35;;;;;;;10.82;4.85;;;9.40;99.90;;;;;;4980500;28;20030;-84
2021/12/17 09:41:01;;;;;;;8.80;4.22;;;9.50;99.90;;;;;;4967010;28;20027;-82
2021/12/17 09:43:29;;;;;;;9.50;4.28;;;9.50;99.90;;;;;;4972633;28;20072;-84
2021/12/17 09:45:58;;;;;;;9.75;4.82;;;9.60;99.90;;;;;;4975569;28;20117;-82
2021/12/17 09:48:23;;;;;;;11.15;4.82;;;9.50;99.90;;;;;;4953173;29;20381;-84
2021/12/17 09:50:52;;;;;;;7.50;4.13;;;9.60;99.90;;;;;;4956448;29;20023;-84
2021/12/17 09:53:17;;;;;;;8.73;4.15;;;9.50;99.90;;;;;;4957156;28;20054;-84
2021/12/17 09:55:45;;;;;;;7.30;3.92;;;9.60;99.90;;;;;;4983981;28;20104;-85
2021/12/17 09:58:11;;;;;;;12.02;4.40;;;9.50;99.90;;;;;;4984421;28;20472;-84
2021/12/17 10:00:37;;;;;;;8.73;3.90;;;9.50;99.90;;;;;;4975334;28;20035;-84
2021/12/17 10:03:08;;;;;;;8.98;3.92;;;9.60;99.90;;;;;;4974246;28;20069;-84
2021/12/17 10:05:35;;;;;;;6.60;3.42;;;9.60;99.90;;;;;;4958293;28;20027;-84
2021/12/17 10:08:05;;;;;;;5.55;2.70;;;9.60;99.90;;;;;;4963767;28;20034;-85
2021/12/17 10:10:42;;;;;;;9.32;3.35;;;9.60;99.90;;;;;;4977776;28;20030;-84
2021/12/17 10:13:23;;;;;;;8.03;2.43;;;9.60;99.90;;;;;;4984201;28;20087;-85
2021/12/17 10:15:58;;;;;;;3.70;2.45;;;9.60;99.90;;;;;;4962292;28;20064;-85
2021/12/17 10:18:42;;;;;;;5.60;2.47;;;9.80;99.90;;;;;;4975448;28;20027;-85
2021/12/17 10:21:17;;;;;;;5.80;2.65;;;9.70;99.90;;;;;;4959555;28;20026;-84
2021/12/17 10:23:44;;;;;;;3.25;2.10;;;9.70;99.90;;;;;;4968407;28;20492;-84
2021/12/17 10:26:15;;;;;;;5.35;2.08;;;9.80;99.90;;;;;;4975130;28;20147;-84
2021/12/17 10:29:04;;;;;;;4.00;2.33;;;9.70;99.90;;;;;;4956516;28;20031;-86
2021/12/17 10:31:35;;;;;;;3.72;2.10;;;9.80;99.90;;;;;;4938995;28;20055;-85
2021/12/17 10:34:03;;;;;;;4.00;1.80;;;9.70;99.90;;;;;;4938079;29;20424;-81
2021/12/17 10:36:35;;;;;;;3.58;2.03;;;9.90;99.90;;;;;;4976344;28;20027;-84
2021/12/17 10:39:11;;;;;;;3.75;1.92;;;9.80;99.90;;;;;;4961507;28;20113;-85
2021/12/17 10:41:49;;;;;;;6.40;2.67;;;9.90;99.90;;;;;;4959362;28;20503;-84
2021/12/17 10:44:18;;;;;;;3.95;2.08;;;9.80;99.90;;;;;;4946015;28;20043;-83
2021/12/17 10:47:19;;;;;;;18.45;2.45;;;9.70;99.90;;;;;;4978266;28;20476;-84
2021/12/17 10:50:04;;;;;;;4.07;2.13;;;9.60;99.90;;;;;;4961409;28;20026;-84
2021/12/17 10:52:41;;;;;;;3.10;1.83;;;9.60;99.90;;;;;;4958931;28;20147;-84
2021/12/17 10:55:16;;;;;;;1.45;0.88;;;9.70;99.90;;;;;;4960748;28;20043;-83
2021/12/17 10:57:45;;;;;;;1.15;1.02;;;9.70;99.90;;;;;;4961991;28;20098;-84
2021/12/17 11:00:12;;;;;;;1.35;1.25;;;9.80;99.90;;;;;;4977730;28;20027;-84
2021/12/17 11:02:46;;;;;;;3.60;1.27;;;9.70;99.90;;;;;;4960458;28;20406;-84
2021/12/17 11:05:14;;;;;;;1.48;1.17;;;9.80;99.90;;;;;;4960064;28;20031;-81
2021/12/17 11:07:43;;;;;;;1.35;1.25;;;9.80;99.90;;;;;;4958420;28;20045;-83
2021/12/17 11:10:09;;;;;;;2.38;1.30;;;9.80;99.90;;;;;;4960097;28;20035;-82
2021/12/17 11:12:41;;;;;;;2.65;1.80;;;9.90;99.90;;;;;;4963782;28;20089;-80
2021/12/17 11:15:14;;;;;;;2.38;1.33;;;9.80;99.90;;;;;;4980032;28;20049;-84
2021/12/17 11:17:44;;;;;;;3.22;1.67;;;9.70;99.90;;;;;;4961473;28;20042;-83
2021/12/17 11:20:19;;;;;;;6.47;1.65;;;9.60;99.90;;;;;;4956192;28;20106;-89
2021/12/17 11:22:46;;;;;;;6.38;2.05;;;9.60;99.90;;;;;;4960165;28;20027;-83
2021/12/17 11:25:13;;;;;;;3.15;1.70;;;9.50;99.90;;;;;;4965942;28;20487;-84
2021/12/17 11:27:40;;;;;;;2.40;1.38;;;9.50;99.90;;;;;;4980529;28;20093;-86
2021/12/17 11:30:10;;;;;;;4.15;1.83;;;9.50;99.90;;;;;;4989500;28;20045;-85
2021/12/17 11:32:36;;;;;;;5.47;2.10;;;9.60;99.90;;;;;;4979674;28;20560;-85
2021/12/17 11:35:04;;;;;;;3.63;1.83;;;9.60;99.90;;;;;;4978528;28;20019;-86
2021/12/17 11:37:30;;;;;;;3.20;2.13;;;9.60;99.90;;;;;;4974687;28;20027;-85
2021/12/17 11:40:01;;;;;;;3.28;2.15;;;9.50;99.90;;;;;;4979463;28;20011;-85
2021/12/17 11:43:00;;;;;;;3.75;1.95;;;9.60;99.90;;;;;;4977169;28;20031;-86
2021/12/17 11:45:29;;;;;;;3.03;1.92;;;9.70;99.90;;;;;;4959422;28;20056;-85
2021/12/17 11:48:21;;;;;;;3.70;2.28;;;9.70;99.90;;;;;;4964073;28;20027;-84
2021/12/17 11:51:04;;;;;;;3.60;1.83;;;9.80;99.90;;;;;;4961404;28;20011;-85
2021/12/17 11:53:31;;;;;;;4.32;2.30;;;9.80;99.90;;;;;;4960515;28;20015;-86
2021/12/17 11:56:00;;;;;;;4.75;2.53;;;9.70;99.90;;;;;;4960068;28;20026;-84
2021/12/17 11:58:43;;;;;;;3.95;2.05;;;9.80;99.90;;;;;;4966578;28;20030;-83
2021/12/17 12:01:08;;;;;;;4.68;1.80;;;9.80;99.90;;;;;;4977838;28;20039;-85
2021/12/17 12:03:34;;;;;;;4.10;1.73;;;9.80;99.90;;;;;;4959602;28;20038;-82
2021/12/17 12:06:01;;;;;;;4.85;1.63;;;9.70;99.90;;;;;;4959293;28;20404;-84
2021/12/17 12:08:54;;;;;;;2.97;2.15;;;9.70;99.90;;;;;;4963776;28;20042;-84
2021/12/17 12:11:26;;;;;;;2.97;1.80;;;9.60;99.90;;;;;;4963192;28;20376;-86
2021/12/17 12:13:54;;;;;;;4.15;1.90;;;9.70;99.90;;;;;;4976720;28;20108;-84
2021/12/17 12:16:26;;;;;;;2.10;1.45;;;9.60;99.90;;;;;;4957029;28;20098;-87
2021/12/17 12:18:54;;;;;;;2.60;1.80;;;9.60;99.90;;;;;;4959110;28;20472;-87
2021/12/17 12:21:22;;;;;;;3.65;1.83;;;9.60;99.90;;;;;;4959811;28;20054;-89
2021/12/17 12:23:52;;;;;;;5.50;2.05;;;9.60;99.90;;;;;;4978921;28;20434;-86
2021/12/17 12:26:26;;;;;;;3.45;1.95;;;9.60;99.90;;;;;;4968835;28;20022;-84
2021/12/17 12:29:09;;;;;;;5.45;2.88;;;9.60;99.90;;;;;;4968020;28;20034;-82
2021/12/17 12:31:37;;;;;;;3.63;2.10;;;9.70;99.90;;;;;;4991149;28;20105;-82
2021/12/17 12:36:50;;;;;;;4.88;2.15;;;9.70;99.90;;;;;;4975823;28;20031;-84
2021/12/17 12:39:18;;;;;;;5.45;2.70;;;9.50;99.90;;;;;;4975972;28;20038;-83
2021/12/17 12:42:01;;;;;;;5.05;2.20;;;9.50;99.90;;;;;;4977840;28;20023;-82
2021/12/17 12:44:41;;;;;;;4.03;2.10;;;9.50;99.90;;;;;;4976062;28;20110;-85
2021/12/17 12:47:10;;;;;;;5.18;2.40;;;9.60;99.90;;;;;;4975867;28;20097;-83
2021/12/17 12:49:50;;;;;;;5.63;2.38;;;9.50;99.90;;;;;;4991160;28;20033;-84
2021/12/17 12:52:46;;;;;;;4.93;2.33;;;9.40;99.90;;;;;;4962022;28;20433;-84
2021/12/17 12:55:14;;;;;;;2.97;2.28;;;9.50;99.90;;;;;;4982413;28;20040;-84
2021/12/17 12:58:01;;;;;;;4.53;2.22;;;9.60;99.90;;;;;;4993041;28;20026;-83
2021/12/17 13:00:29;;;;;;;2.72;2.25;;;9.70;99.90;;;;;;4957188;28;20494;-83
2021/12/17 13:02:58;;;;;;;7.93;2.80;;;9.70;99.90;;;;;;4958188;28;20034;-83
2021/12/17 13:05:25;;;;;;;10.82;2.40;;;9.70;99.90;;;;;;4975290;28;20031;-83
2021/12/17 13:07:59;;;;;;;6.50;2.80;;;9.70;99.90;;;;;;4958975;28;20041;-85
2021/12/17 13:10:32;;;;;;;4.95;2.85;;;9.70;99.90;;;;;;4972526;28;20094;-84
2021/12/17 13:13:03;;;;;;;6.95;3.28;;;9.70;99.90;;;;;;4958307;28;20547;-83
2021/12/17 13:15:45;;;;;;;4.07;2.60;;;9.70;99.90;;;;;;4937637;29;20047;-83
2021/12/17 13:26:33;;;;;;;2.67;2.08;;;10.00;99.90;;;;;;4956639;28;20036;-85
2021/12/17 13:29:21;;;;;;;3.45;2.22;;;10.00;99.90;;;;;;4958794;28;20061;-85
2021/12/17 13:31:55;;;;;;;7.97;2.38;;;10.10;99.90;;;;;;4954550;29;20034;-83
2021/12/17 13:34:28;;;;;;;5.22;2.47;;;10.20;99.90;;;;;;4955075;28;20479;-85
2021/12/17 13:37:02;;;;;;;3.47;2.25;;;10.20;99.90;;;;;;4955785;29;20031;-85
2021/12/17 13:39:38;;;;;;;3.67;2.03;;;10.20;99.90;;;;;;4962222;28;20039;-86
2021/12/17 13:42:07;;;;;;;4.47;2.60;;;10.20;99.90;;;;;;4954267;29;20276;-84
2021/12/17 13:44:43;;;;;;;4.82;2.42;;;10.20;99.90;;;;;;4955253;28;20066;-85
2021/12/17 13:47:23;;;;;;;5.32;2.28;;;10.20;99.90;;;;;;4961603;28;20032;-85
2021/12/17 13:50:08;;;;;;;2.50;2.00;;;10.20;99.90;;;;;;4972423;28;20046;-84
2021/12/17 13:52:55;;;;;;;3.10;2.00;;;10.20;99.90;;;;;;4947408;29;20087;-84
2021/12/17 13:55:34;;;;;;;2.83;1.97;;;10.20;99.90;;;;;;4955270;29;20114;-85
2021/12/17 13:58:06;;;;;;;2.70;1.90;;;10.20;99.90;;;;;;4953996;29;20023;-84
2021/12/17 14:00:57;;;;;;;3.33;1.88;;;10.20;99.90;;;;;;4953299;29;20071;-85
2021/12/17 14:03:28;;;;;;;6.57;2.20;;;10.20;99.90;;;;;;4945262;29;20039;-86
2021/12/17 14:06:09;;;;;;;4.65;2.08;;;10.30;99.90;;;;;;4957705;28;20022;-83
2021/12/17 14:08:40;;;;;;;2.40;1.75;;;10.40;99.90;;;;;;4973607;28;20023;-84
2021/12/17 14:11:33;;;;;;;2.33;1.60;;;10.40;99.90;;;;;;4978619;28;20027;-84
2021/12/17 14:14:00;;;;;;;3.90;1.80;;;10.40;99.90;;;;;;4979366;28;20046;-85
2021/12/17 14:16:33;;;;;;;2.15;1.77;;;10.30;99.90;;;;;;4981478;28;20050;-85
2021/12/17 14:19:02;;;;;;;3.30;1.83;;;10.20;99.90;;;;;;4964174;28;20030;-85
2021/12/17 14:21:33;;;;;;;2.45;1.88;;;10.20;99.90;;;;;;4980999;28;20021;-85
2021/12/17 14:24:00;;;;;;;5.45;2.22;;;10.20;99.90;;;;;;4980984;28;20065;-86
2021/12/17 14:26:34;;;;;;;2.67;2.10;;;10.30;99.90;;;;;;4963268;28;20054;-86
2021/12/17 14:29:11;;;;;;;4.68;1.80;;;10.20;99.90;;;;;;4981271;28;20085;-87
2021/12/17 14:31:37;;;;;;;3.38;1.75;;;10.10;99.90;;;;;;4980052;28;20027;-85
2021/12/17 14:34:03;;;;;;;2.78;2.00;;;10.20;99.90;;;;;;4970094;28;20121;-87
2021/12/17 14:36:36;;;;;;;1.98;1.77;;;10.10;99.90;;;;;;4981066;28;20030;-86
2021/12/17 14:39:12;;;;;;;2.35;1.95;;;10.20;99.90;;;;;;4981368;28;20034;-85
2021/12/17 14:41:52;;;;;;;3.30;1.92;;;10.10;99.90;;;;;;4974608;28;20042;-86
2021/12/17 14:47:01;;;;;;;2.38;2.05;;;10.10;99.90;;;;;;4995990;28;20031;-84
2021/12/17 15:05:52;;;;;;;2.55;2.20;;;10.00;99.90;;;;;;4995740;28;20041;-83
2021/12/17 15:08:18;;;;;;;3.72;2.50;;;10.00;99.90;;;;;;4987342;28;20398;-82
2021/12/17 15:10:45;;;;;;;3.00;2.30;;;10.10;99.90;;;;;;4985445;28;20438;-83
2021/12/17 15:13:11;;;;;;;5.87;2.60;;;10.00;99.90;;;;;;4976007;28;20061;-83
2021/12/17 15:15:39;;;;;;;4.57;2.75;;;10.00;99.90;;;;;;4965683;28;20043;-82
2021/12/17 15:18:06;;;;;;;;;;;10.00;99.90;;;;;;4982991;28;20380;-83
2021/12/17 15:20:33;;;;;;;6.80;2.38;;;10.00;99.90;;;;;;4982717;28;19941;-85
2021/12/17 15:23:03;;;;;;;10.13;2.65;;;10.00;99.90;;;;;;4977695;28;20041;-83
2021/12/17 15:25:29;;;;;;;6.10;3.50;;;9.90;99.90;;;;;;4983800;28;20034;-84
2021/12/17 15:27:56;;;;;;;4.30;2.92;;;9.90;99.90;;;;;;4976996;28;20079;-84
2021/12/17 15:30:25;;;;;;;5.10;3.22;;;9.90;99.90;;;;;;4979839;28;20154;-83
2021/12/17 15:32:50;;;;;;;4.55;2.90;;;10.00;99.90;;;;;;4998205;28;20441;-85
2021/12/17 15:35:19;;;;;;;6.03;2.90;;;9.90;99.90;;;;;;4987731;28;20027;-84
2021/12/17 15:37:49;;;;;;;4.43;2.88;;;9.90;99.90;;;;;;4986104;28;20483;-83
2021/12/17 15:40:15;;;;;;;7.63;3.53;;;9.90;99.90;;;;;;4958799;28;20043;-82
2021/12/17 15:42:41;;;;;;;6.32;3.42;;;9.90;99.90;;;;;;4979321;28;20438;-83
2021/12/17 15:45:10;;;;;;;6.28;3.67;;;9.90;99.90;;;;;;4984227;28;20383;-85
2021/12/17 15:47:36;;;;;;;7.13;3.47;;;9.80;99.90;;;;;;4988502;28;20077;-82
2021/12/17 15:50:04;;;;;;;6.05;3.05;;;9.80;99.90;;;;;;4966688;28;20011;-85
2021/12/17 15:52:33;;;;;;;11.32;3.90;;;9.90;99.90;;;;;;4997450;28;20039;-84
2021/12/17 15:54:58;;;;;;;6.65;3.83;;;9.90;99.90;;;;;;4996799;28;20010;-82
2021/12/17 15:57:26;;;;;;;5.38;3.40;;;9.80;99.90;;;;;;4976071;29;20039;-80
2021/12/17 15:59:54;;;;;;;;;;;9.80;99.90;;;;;;4971633;28;20019;-82
2021/12/17 16:02:20;;;;;;;5.38;3.55;;;9.80;99.90;;;;;;5000438;28;19898;-84
2021/12/17 16:04:47;;;;;;;7.18;3.17;;;9.80;99.90;;;;;;4999357;28;20046;-85
2021/12/17 16:07:14;;;;;;;6.10;3.83;;;9.80;99.90;;;;;;4986190;28;20038;-82
2021/12/17 16:22:54;;;;;;;7.45;3.70;;;9.70;99.90;;;;;;5014907;28;20046;-85
2021/12/17 16:25:22;;;;;;;12.27;3.97;;;9.70;99.90;;;;;;4988309;28;20093;-84
2021/12/17 16:27:49;;;;;;;5.55;3.63;;;9.70;99.90;;;;;;5017271;28;20007;-83
2021/12/17 16:30:15;;;;;;;6.28;4.15;;;9.70;99.90;;;;;;4989906;28;20034;-81
2021/12/17 16:32:40;;;;;;;6.63;4.60;;;9.70;99.90;;;;;;5000639;28;20039;-85
2021/12/17 16:35:06;;;;;;;12.02;4.95;;;9.70;99.90;;;;;;4999959;28;20015;-84
2021/12/17 16:37:32;;;;;;;12.80;4.60;;;9.70;99.90;;;;;;4988337;28;20026;-85
2021/12/17 16:39:58;;;;;;;5.35;4.05;;;9.70;99.90;;;;;;5019430;28;20010;-83
2021/12/17 16:42:24;;;;;;;8.82;4.53;;;9.70;99.90;;;;;;4997126;28;20091;-85
2021/12/17 16:47:30;;;;;;;11.32;5.30;;;9.70;99.90;;;;;;5008027;28;20034;-84
2021/12/17 16:49:56;;;;;;;8.18;4.85;;;9.60;99.90;;;;;;4983406;28;20023;-84